Time;durP1;ratioP1;P1;durP2;ratioP2;P2;SDS_P1;SDS_P2;PMS_P1;PMS_P2;Temp;Humidity;BMP_temperature;BMP_pressure;BME280_temperature;BME280_humidity;BME280_pressure;Samples;Min_cycle;Max_cycle;Signal;HPM_P1;HPM_P2
2022/01/20 00:01:59;;;;;;;4.20;3.40;;;3.70;99.90;;;;;;4957032;28;20148;-70
2022/01/20 00:04:42;;;;;;;6.22;3.15;;;3.70;99.90;;;;;;4921122;28;20046;-77
2022/01/20 00:07:28;;;;;;;4.13;2.72;;;3.70;99.90;;;;;;4916925;28;20046;-69
2022/01/20 00:25:53;;;;;;;2.58;0.95;;;3.80;99.90;;;;;;4917273;28;20054;-74
2022/01/20 00:26:41;;;;;;;2.95;0.70;;;3.70;99.90;;;;;;4915058;28;20069;-66
2022/01/20 00:29:16;;;;;;;4.93;0.53;;;3.70;99.90;;;;;;4913956;28;21123;-70
2022/01/20 00:31:59;;;;;;;1.35;0.32;;;3.60;99.90;;;;;;4912178;28;20300;-73
2022/01/20 00:34:42;;;;;;;3.42;0.43;;;3.40;99.90;;;;;;4974271;28;21494;-70
2022/01/20 00:37:16;;;;;;;0.98;0.22;;;3.30;99.90;;;;;;4975985;28;20073;-72
2022/01/20 00:39:45;;;;;;;0.55;0.20;;;3.30;99.90;;;;;;4973195;28;20109;-74
2022/01/20 00:42:15;;;;;;;1.87;1.40;;;3.20;99.90;;;;;;4977197;28;20176;-70
2022/01/20 00:44:43;;;;;;;3.08;1.08;;;3.20;99.90;;;;;;4978079;28;20335;-66
2022/01/20 00:47:11;;;;;;;2.60;1.40;;;3.10;99.90;;;;;;4977835;28;20059;-74
2022/01/20 00:49:40;;;;;;;0.55;0.28;;;3.00;99.90;;;;;;4928418;28;20431;-70
2022/01/20 00:52:08;;;;;;;3.45;0.88;;;2.90;99.90;;;;;;4922638;28;20907;-71
2022/01/20 00:54:35;;;;;;;2.17;0.60;;;2.90;99.90;;;;;;4914780;28;20281;-76
2022/01/20 00:57:03;;;;;;;3.00;0.25;;;2.80;99.90;;;;;;4917049;28;20129;-71
2022/01/20 00:59:31;;;;;;;3.60;0.77;;;2.70;99.90;;;;;;4926247;28;20050;-71
2022/01/20 01:02:04;;;;;;;3.40;0.47;;;2.70;99.90;;;;;;4926022;28;20081;-73
2022/01/20 01:04:31;;;;;;;3.85;0.55;;;2.70;99.90;;;;;;4906972;28;20096;-71
2022/01/20 01:09:31;;;;;;;3.83;0.50;;;2.60;99.90;;;;;;4923266;28;20229;-72
2022/01/20 01:12:02;;;;;;;8.20;2.10;;;2.50;99.90;;;;;;4920519;28;20172;-69
2022/01/20 01:14:34;;;;;;;5.50;1.17;;;2.50;99.90;;;;;;4204077;28;10001367;-75
2022/01/20 01:24:46;;;;;;;11.93;1.55;;;2.30;99.90;;;;;;4981625;28;20054;-68
2022/01/20 01:27:14;;;;;;;6.53;1.10;;;2.10;99.90;;;;;;4996822;28;20396;-64
2022/01/20 01:32:38;;;;;;;4.25;1.20;;;2.00;99.90;;;;;;4980971;28;20405;-67
2022/01/20 01:35:08;;;;;;;10.13;2.03;;;2.00;99.90;;;;;;4979532;28;20081;-65
2022/01/20 01:38:24;;;;;;;4.05;0.80;;;1.80;99.90;;;;;;4995600;28;20054;-68
2022/01/20 01:40:26;;;;;;;15.00;2.85;;;1.70;99.90;;;;;;4994910;28;20146;-73
2022/01/20 01:42:54;;;;;;;;;;;1.40;99.90;;;;;;4978404;28;20045;-65
2022/01/20 01:45:26;;;;;;;4.28;0.47;;;1.00;99.90;;;;;;4977945;28;20527;-74
2022/01/20 01:47:55;;;;;;;4.75;0.95;;;0.90;99.90;;;;;;4981608;28;20050;-67
2022/01/20 01:50:24;;;;;;;1.87;1.00;;;0.90;99.90;;;;;;4959923;28;20069;-65
2022/01/20 01:52:53;;;;;;;10.98;2.08;;;0.90;99.90;;;;;;4938614;28;20194;-73
2022/01/20 01:55:21;;;;;;;14.30;2.42;;;0.90;99.90;;;;;;4915412;28;20041;-72
2022/01/20 01:57:49;;;;;;;15.77;3.72;;;0.90;99.90;;;;;;4929592;28;22212;-75
2022/01/20 02:00:20;;;;;;;12.40;2.17;;;0.90;99.90;;;;;;4942091;28;20061;-66
2022/01/20 02:02:54;;;;;;;11.77;3.70;;;0.90;99.90;;;;;;4953529;28;20058;-65
2022/01/20 02:05:34;;;;;;;5.15;1.40;;;0.80;99.90;;;;;;4947079;28;21156;-79
2022/01/20 02:19:11;;;;;;;5.97;1.10;;;0.20;99.90;;;;;;4933964;28;20849;-75
2022/01/20 02:21:56;;;;;;;8.52;1.70;;;0.10;99.90;;;;;;4934981;28;20216;-62
2022/01/20 02:24:28;;;;;;;15.35;2.15;;;0.10;99.90;;;;;;4981288;28;21554;-72
2022/01/20 02:26:57;;;;;;;12.05;1.42;;;0.10;99.90;;;;;;4982554;28;20053;-66
2022/01/20 02:29:32;;;;;;;12.48;1.95;;;0.10;99.90;;;;;;4979198;28;20064;-70
2022/01/20 02:32:00;;;;;;;18.52;2.78;;;0.10;99.90;;;;;;4980570;28;20073;-67
2022/01/20 02:34:30;;;;;;;9.93;1.73;;;0.00;99.90;;;;;;4997318;28;20062;-67
2022/01/20 02:37:01;;;;;;;6.90;2.25;;;-0.10;99.90;;;;;;4993889;28;20104;-66
2022/01/20 02:45:01;;;;;;;14.10;1.15;;;-0.10;99.90;;;;;;2458794;28;10023494;-72
2022/01/20 02:47:31;;;;;;;12.63;3.25;;;-0.10;99.90;;;;;;3933910;28;10001223;-71
2022/01/20 02:49:58;;;;;;;;;;;-0.10;99.90;;;;;;4995248;28;20130;-66
2022/01/20 02:52:27;;;;;;;3.75;1.08;;;-0.10;99.90;;;;;;4993587;28;19929;-73
2022/01/20 02:54:55;;;;;;;4.00;1.25;;;-0.20;99.90;;;;;;4977321;28;20097;-68
2022/01/20 02:57:23;;;;;;;5.63;0.93;;;-0.30;99.90;;;;;;4974541;28;20153;-73
2022/01/20 02:59:51;;;;;;;13.27;2.00;;;-0.30;99.90;;;;;;4975802;28;20053;-67
2022/01/20 03:02:18;;;;;;;7.38;1.75;;;-0.30;99.90;;;;;;4968624;28;21671;-64
2022/01/20 03:04:47;;;;;;;12.90;2.78;;;-0.30;99.90;;;;;;4963508;28;20046;-67
2022/01/20 03:07:24;;;;;;;8.27;2.53;;;-0.40;99.90;;;;;;4960404;28;20091;-70
2022/01/20 03:09:51;;;;;;;6.07;1.60;;;-0.50;99.90;;;;;;4963663;28;20058;-66
2022/01/20 03:12:18;;;;;;;12.38;2.83;;;-0.50;99.90;;;;;;4972143;28;21069;-64
2022/01/20 03:14:46;;;;;;;6.63;2.75;;;-0.50;99.90;;;;;;4966111;28;20089;-66
2022/01/20 03:17:14;;;;;;;17.90;3.25;;;-0.60;99.90;;;;;;4984101;28;20128;-69
2022/01/20 03:19:41;;;;;;;16.73;1.98;;;-0.80;99.90;;;;;;4970947;28;20054;-67
2022/01/20 03:22:09;;;;;;;6.57;2.05;;;-0.90;99.90;;;;;;4963877;28;20189;-67
2022/01/20 03:24:36;;;;;;;12.45;2.05;;;-0.80;99.90;;;;;;4967499;28;20529;-65
2022/01/20 03:27:04;;;;;;;15.18;3.25;;;-0.70;99.90;;;;;;4983248;28;20519;-68
2022/01/20 03:29:31;;;;;;;7.05;2.22;;;-0.70;99.90;;;;;;4968114;28;20152;-71
2022/01/20 03:31:58;;;;;;;5.30;0.90;;;-0.60;99.90;;;;;;4973246;28;20069;-70
2022/01/20 03:34:25;;;;;;;5.38;1.90;;;-0.70;99.90;;;;;;4972632;28;20476;-69
2022/01/20 03:37:00;;;;;;;6.70;1.45;;;-0.80;99.90;;;;;;4979391;28;21533;-66
2022/01/20 03:39:39;;;;;;;9.18;1.67;;;-0.70;99.90;;;;;;4982971;28;20088;-66
2022/01/20 03:42:06;;;;;;;13.13;2.92;;;-0.60;99.90;;;;;;4970891;28;20061;-69
2022/01/20 03:44:33;;;;;;;7.40;2.20;;;-0.60;99.90;;;;;;4968360;28;21500;-61
2022/01/20 03:47:02;;;;;;;8.90;3.72;;;-0.60;99.90;;;;;;4970419;28;20047;-67
2022/01/20 03:49:54;;;;;;;13.88;3.00;;;-0.70;99.90;;;;;;4970607;28;20086;-68
2022/01/20 03:52:18;;;;;;;5.18;1.90;;;-0.70;99.90;;;;;;4954465;28;20070;-74
2022/01/20 03:54:45;;;;;;;9.55;1.40;;;-0.60;99.90;;;;;;4913144;28;20136;-69
2022/01/20 03:57:19;;;;;;;12.50;1.58;;;-0.70;99.90;;;;;;4904425;28;20192;-65
2022/01/20 04:00:05;;;;;;;9.10;1.50;;;-0.70;99.90;;;;;;4910583;28;20084;-66
2022/01/20 04:02:42;;;;;;;11.38;1.65;;;-0.70;99.90;;;;;;4907162;28;20575;-68
2022/01/20 04:05:47;;;;;;;6.82;2.80;;;-0.70;99.90;;;;;;4896223;28;20058;-71
2022/01/20 04:08:34;;;;;;;6.32;1.88;;;-0.60;99.90;;;;;;4911019;28;20109;-68
2022/01/20 04:11:04;;;;;;;9.10;2.85;;;-0.70;99.90;;;;;;4899813;28;20106;-64
2022/01/20 04:13:32;;;;;;;15.93;3.10;;;-0.70;99.90;;;;;;4908999;28;20054;-66
2022/01/20 04:16:36;;;;;;;5.40;1.15;;;-0.70;99.90;;;;;;4930667;28;20101;-67
2022/01/20 04:19:07;;;;;;;7.53;1.27;;;-0.80;99.90;;;;;;4898260;28;20062;-67
2022/01/20 04:21:36;;;;;;;7.88;2.58;;;-0.90;99.90;;;;;;4932017;28;20076;-72
2022/01/20 04:24:05;;;;;;;14.13;2.72;;;-1.00;99.90;;;;;;4953048;28;20055;-64
2022/01/20 04:26:38;;;;;;;6.90;2.55;;;-1.10;99.90;;;;;;4951738;28;20164;-69
2022/01/20 04:29:08;;;;;;;6.72;2.03;;;-1.20;99.90;;;;;;4988008;28;20117;-68
2022/01/20 04:31:35;;;;;;;7.45;2.45;;;-1.10;99.90;;;;;;4985352;28;20054;-69
2022/01/20 04:34:04;;;;;;;8.30;1.30;;;-1.10;99.90;;;;;;4966905;28;20582;-68
2022/01/20 04:36:35;;;;;;;3.38;1.10;;;-1.10;99.90;;;;;;4971164;28;20089;-64
2022/01/20 04:39:07;;;;;;;6.50;1.67;;;-1.20;99.90;;;;;;4973072;28;20141;-66
2022/01/20 04:41:35;;;;;;;7.65;1.48;;;-1.30;99.90;;;;;;4935500;28;22413;-67
2022/01/20 04:44:29;;;;;;;9.45;2.45;;;-1.30;99.90;;;;;;2343040;28;10023461;-67
2022/01/20 04:47:09;;;;;;;10.55;1.65;;;-1.50;99.90;;;;;;3586503;28;10001531;-66
2022/01/20 04:57:54;;;;;;;8.63;1.60;;;-1.70;99.90;;;;;;4973170;28;20050;-66
2022/01/20 05:00:21;;;;;;;7.35;2.22;;;-1.80;99.90;;;;;;4956376;28;20132;-64
2022/01/20 05:03:08;;;;;;;4.90;2.15;;;-1.70;99.90;;;;;;4939147;28;20054;-69
2022/01/20 05:05:36;;;;;;;13.50;2.85;;;-1.60;99.90;;;;;;4969346;28;20042;-63
2022/01/20 05:08:23;;;;;;;13.38;4.93;;;-1.70;99.90;;;;;;4973711;28;20058;-64
2022/01/20 05:10:55;;;;;;;10.18;1.95;;;-1.70;99.90;;;;;;4973543;28;20059;-62
2022/01/20 05:13:24;;;;;;;5.35;2.28;;;-1.60;99.90;;;;;;4987566;28;21381;-62
2022/01/20 05:15:51;;;;;;;9.55;2.10;;;-1.70;99.90;;;;;;4971923;28;20051;-64
2022/01/20 05:18:18;;;;;;;6.45;1.60;;;-1.90;99.90;;;;;;4973350;28;20510;-61
2022/01/20 05:20:46;;;;;;;10.67;2.23;;;-2.00;99.90;;;;;;4974687;28;20058;-68
2022/01/20 05:23:13;;;;;;;9.70;3.47;;;-1.90;99.90;;;;;;4976820;28;20077;-63
2022/01/20 05:25:40;;;;;;;13.35;3.88;;;-1.90;99.90;;;;;;4975803;28;20050;-63
2022/01/20 05:28:07;;;;;;;9.93;2.38;;;-1.90;99.90;;;;;;4974538;28;20148;-69
2022/01/20 05:30:35;;;;;;;11.27;2.13;;;-1.90;99.90;;;;;;4975213;28;20050;-66
2022/01/20 05:33:21;;;;;;;6.55;1.92;;;-1.90;99.90;;;;;;4975091;28;20228;-64
2022/01/20 05:35:48;;;;;;;3.83;1.77;;;-1.90;99.90;;;;;;4987999;28;20051;-64
2022/01/20 05:38:16;;;;;;;8.10;1.95;;;-1.90;99.90;;;;;;4981451;28;20634;-63
2022/01/20 05:40:46;;;;;;;10.75;2.35;;;-1.90;99.90;;;;;;4980550;28;21120;-63
2022/01/20 05:43:13;;;;;;;8.10;2.20;;;-1.90;99.90;;;;;;4993864;28;20080;-65
2022/01/20 05:45:43;;;;;;;15.32;2.25;;;-1.90;99.90;;;;;;4984893;28;20117;-66
2022/01/20 05:48:14;;;;;;;7.15;1.50;;;-1.90;99.90;;;;;;4978437;28;20051;-65
2022/01/20 05:51:00;;;;;;;4.50;3.33;;;-1.80;99.90;;;;;;4971748;28;20057;-66
2022/01/20 05:53:29;;;;;;;2.22;1.08;;;-1.80;99.90;;;;;;4926609;28;20055;-64
2022/01/20 05:55:56;;;;;;;5.13;1.55;;;-1.90;99.90;;;;;;4920977;28;20206;-71
2022/01/20 05:58:23;;;;;;;9.80;2.17;;;-1.80;99.90;;;;;;4920002;28;20097;-64
2022/01/20 06:00:53;;;;;;;3.35;1.05;;;-1.80;99.90;;;;;;4933753;28;20055;-72
2022/01/20 06:03:36;;;;;;;6.80;2.13;;;-1.80;99.90;;;;;;4904989;28;20519;-69
2022/01/20 06:06:06;;;;;;;5.78;1.38;;;-1.80;99.90;;;;;;4913258;28;20749;-69
2022/01/20 06:08:35;;;;;;;3.50;1.20;;;-1.70;99.90;;;;;;4918193;28;20200;-72
2022/01/20 06:11:03;;;;;;;7.50;1.42;;;-1.80;99.90;;;;;;4920216;28;20136;-72
2022/01/20 06:13:31;;;;;;;7.80;2.40;;;-1.70;99.90;;;;;;4917773;28;20167;-72
2022/01/20 06:15:59;;;;;;;11.50;2.35;;;-1.50;99.90;;;;;;4923665;28;20056;-70
2022/01/20 06:18:26;;;;;;;6.75;1.25;;;-1.40;99.90;;;;;;4912729;28;20046;-71
2022/01/20 06:20:56;;;;;;;6.03;1.58;;;-1.50;99.90;;;;;;4917848;28;20050;-66
2022/01/20 06:23:25;;;;;;;8.10;1.77;;;-1.40;99.90;;;;;;4934333;28;20122;-70
2022/01/20 06:25:53;;;;;;;8.18;2.17;;;-1.40;99.90;;;;;;4922207;28;20058;-66
2022/01/20 06:28:21;;;;;;;4.75;2.03;;;-1.50;99.90;;;;;;4916393;28;20061;-68
2022/01/20 06:30:50;;;;;;;9.65;1.75;;;-1.60;99.90;;;;;;4926137;28;20058;-65
2022/01/20 06:33:17;;;;;;;6.80;2.20;;;-1.70;99.90;;;;;;4920433;28;20054;-65
2022/01/20 06:35:50;;;;;;;5.50;1.48;;;-1.70;99.90;;;;;;4917860;28;20054;-72
2022/01/20 06:38:18;;;;;;;6.72;2.42;;;-1.80;99.90;;;;;;4934270;28;20416;-65
2022/01/20 06:40:45;;;;;;;11.32;1.95;;;-1.80;99.90;;;;;;4969525;28;20046;-66
2022/01/20 06:43:28;;;;;;;9.92;1.84;;;-1.80;99.90;;;;;;4316065;28;10001580;-68
2022/01/20 06:45:56;;;;;;;7.53;1.60;;;-1.80;99.90;;;;;;1362631;28;10002283;-65
2022/01/20 06:48:58;;;;;;;14.90;2.40;;;-2.00;99.90;;;;;;4913882;28;20301;-66
2022/01/20 06:51:31;;;;;;;5.95;2.50;;;-1.90;99.90;;;;;;4965044;28;20109;-64
2022/01/20 06:53:59;;;;;;;18.20;2.22;;;-1.90;99.90;;;;;;4972047;28;20757;-68
2022/01/20 06:56:26;;;;;;;13.77;2.38;;;-1.90;99.90;;;;;;4973714;28;20733;-66
2022/01/20 06:59:13;;;;;;;19.92;4.25;;;-1.90;99.90;;;;;;4978667;28;20109;-65
2022/01/20 07:01:42;;;;;;;6.85;1.38;;;-1.80;99.90;;;;;;4973244;28;20062;-63
2022/01/20 07:04:15;;;;;;;8.57;2.00;;;-1.80;99.90;;;;;;4980921;28;20047;-65
2022/01/20 07:06:43;;;;;;;11.65;2.83;;;-1.90;99.90;;;;;;4981917;28;20089;-62
2022/01/20 07:09:29;;;;;;;8.18;2.40;;;-1.80;99.90;;;;;;4961960;28;20061;-66
2022/01/20 07:12:02;;;;;;;10.98;1.23;;;-1.90;99.90;;;;;;4968750;28;20057;-65
2022/01/20 07:14:30;;;;;;;5.50;1.35;;;-2.00;99.90;;;;;;4974761;28;20065;-68
2022/01/20 07:16:58;;;;;;;4.80;1.45;;;-2.00;99.90;;;;;;4964032;28;20054;-72
2022/01/20 07:19:25;;;;;;;5.47;2.65;;;-2.00;99.90;;;;;;4971797;28;20049;-67
2022/01/20 07:21:52;;;;;;;13.65;1.90;;;-1.90;99.90;;;;;;4968406;28;20089;-68
2022/01/20 07:24:20;;;;;;;17.38;2.40;;;-2.00;99.90;;;;;;4974722;28;20057;-66
2022/01/20 07:26:47;;;;;;;8.07;2.75;;;-1.90;99.90;;;;;;4964860;28;20077;-61
2022/01/20 07:29:23;;;;;;;11.10;2.17;;;-1.90;99.90;;;;;;4980176;28;20529;-64
2022/01/20 07:31:50;;;;;;;9.98;2.25;;;-1.90;99.90;;;;;;4966999;28;20069;-68
2022/01/20 07:34:18;;;;;;;12.63;2.13;;;-1.90;99.90;;;;;;4976799;28;20042;-63
2022/01/20 07:36:45;;;;;;;7.47;1.77;;;-1.90;99.90;;;;;;4971428;28;20135;-62
2022/01/20 07:39:12;;;;;;;14.02;2.28;;;-1.80;99.90;;;;;;4975861;28;21207;-64
2022/01/20 07:41:40;;;;;;;15.68;2.20;;;-1.90;99.90;;;;;;4974927;28;20097;-70
2022/01/20 07:44:27;;;;;;;9.05;3.97;;;-1.90;99.90;;;;;;4970873;28;20065;-68
2022/01/20 07:47:06;;;;;;;4.95;1.42;;;-1.80;99.90;;;;;;4960445;28;20108;-67
2022/01/20 07:49:34;;;;;;;11.87;2.90;;;-1.90;99.90;;;;;;4977631;28;20054;-65
2022/01/20 07:52:02;;;;;;;6.10;2.23;;;-1.90;99.90;;;;;;4953794;28;20055;-66
2022/01/20 07:54:29;;;;;;;12.10;3.40;;;-1.90;99.90;;;;;;4916373;28;20149;-71
2022/01/20 07:56:56;;;;;;;10.10;1.85;;;-1.90;99.90;;;;;;4908183;28;20142;-65
2022/01/20 07:59:24;;;;;;;21.03;2.10;;;-1.80;99.90;;;;;;4916859;28;20122;-67
2022/01/20 08:01:51;;;;;;;10.63;1.70;;;-1.80;99.90;;;;;;4921865;28;20050;-69
2022/01/20 08:04:18;;;;;;;5.60;1.35;;;-1.90;99.90;;;;;;4924138;28;20514;-68
2022/01/20 08:06:45;;;;;;;9.20;2.05;;;-1.90;99.90;;;;;;4916981;28;20054;-66
2022/01/20 08:09:22;;;;;;;3.58;2.08;;;-1.80;99.90;;;;;;4922357;28;20050;-66
2022/01/20 08:12:16;;;;;;;6.68;2.20;;;-1.80;99.90;;;;;;4922634;28;20536;-70
2022/01/20 08:15:04;;;;;;;27.95;3.78;;;-1.70;99.90;;;;;;4899863;28;20932;-69
2022/01/20 08:17:43;;;;;;;10.30;1.65;;;-1.70;99.90;;;;;;4929901;28;20603;-67
2022/01/20 08:20:11;;;;;;;6.35;2.28;;;-1.70;99.90;;;;;;4923236;28;20054;-62
2022/01/20 08:22:38;;;;;;;11.30;2.75;;;-1.70;99.90;;;;;;4955019;28;20058;-62
2022/01/20 08:25:10;;;;;;;14.32;4.07;;;-1.60;99.90;;;;;;4980644;28;20053;-65
2022/01/20 08:27:38;;;;;;;12.85;2.55;;;-1.70;99.90;;;;;;4981774;28;20058;-68
2022/01/20 08:30:11;;;;;;;3.90;2.88;;;-1.60;99.90;;;;;;4980864;28;20596;-71
2022/01/20 08:32:39;;;;;;;10.60;2.28;;;-1.70;99.90;;;;;;4975304;28;20058;-68
2022/01/20 08:35:15;;;;;;;12.95;1.92;;;-1.60;99.90;;;;;;4980814;28;20060;-65
2022/01/20 08:37:55;;;;;;;4.70;2.37;;;-1.70;99.90;;;;;;4981587;28;20080;-67
2022/01/20 08:40:23;;;;;;;5.55;1.98;;;-1.70;99.90;;;;;;4978556;28;20672;-68
2022/01/20 08:42:54;;;;;;;7.88;2.10;;;-1.80;99.90;;;;;;4835492;28;20054;-69
2022/01/20 08:45:24;;;;;;;7.40;2.00;;;-1.70;99.90;;;;;;339044;28;10022829;-63
2022/01/20 08:47:55;;;;;;;9.27;1.73;;;-1.70;99.90;;;;;;4958215;28;20340;-65
2022/01/20 08:50:25;;;;;;;14.57;1.83;;;-1.70;99.90;;;;;;4966545;28;20054;-69
2022/01/20 08:52:53;;;;;;;17.00;4.78;;;-1.50;99.90;;;;;;4967501;28;20296;-67
2022/01/20 08:55:20;;;;;;;9.77;1.30;;;-1.40;99.90;;;;;;4968977;28;20186;-63
2022/01/20 08:57:57;;;;;;;10.57;2.22;;;-1.50;99.90;;;;;;4981279;28;20140;-66
2022/01/20 09:00:27;;;;;;;14.52;2.20;;;-1.50;99.90;;;;;;4983927;28;20057;-71
2022/01/20 09:02:59;;;;;;;10.48;1.58;;;-1.50;99.90;;;;;;4967732;28;20565;-66
2022/01/20 09:05:27;;;;;;;11.68;1.73;;;-1.60;99.90;;;;;;4982068;28;20129;-69
2022/01/20 09:08:14;;;;;;;9.27;1.38;;;-1.60;99.90;;;;;;4975369;28;20156;-66
2022/01/20 09:10:55;;;;;;;12.82;3.17;;;-1.60;99.90;;;;;;4980357;28;20398;-62
2022/01/20 09:16:13;;;;;;;8.88;1.52;;;-1.70;99.90;;;;;;4964506;28;20050;-64
2022/01/20 09:18:41;;;;;;;6.33;2.17;;;-1.70;99.90;;;;;;4978596;28;20061;-67
2022/01/20 09:21:08;;;;;;;4.50;1.03;;;-1.70;99.90;;;;;;4975060;28;20721;-63
2022/01/20 09:23:37;;;;;;;24.35;1.48;;;-1.70;99.90;;;;;;4968627;28;20066;-66
2022/01/20 09:26:05;;;;;;;26.17;4.07;;;-1.50;99.90;;;;;;4974011;28;20050;-64
2022/01/20 09:28:36;;;;;;;9.70;2.78;;;-1.50;99.90;;;;;;4978548;28;20054;-65
2022/01/20 09:31:03;;;;;;;7.18;1.27;;;-1.50;99.90;;;;;;4982268;28;20057;-61
2022/01/20 09:33:30;;;;;;;10.10;3.03;;;-1.40;99.90;;;;;;4984002;28;20054;-65
2022/01/20 09:35:59;;;;;;;3.35;1.13;;;-1.40;99.90;;;;;;4994969;28;20055;-65
2022/01/20 09:38:29;;;;;;;8.18;3.00;;;-1.50;99.90;;;;;;4981692;28;20128;-62
2022/01/20 09:40:56;;;;;;;12.15;2.25;;;-1.50;99.90;;;;;;4970196;28;20053;-61
2022/01/20 09:43:24;;;;;;;9.25;3.08;;;-1.40;99.90;;;;;;4976995;28;20051;-65
2022/01/20 09:45:57;;;;;;;5.63;1.60;;;-1.40;99.90;;;;;;4967459;28;20179;-68
2022/01/20 09:48:28;;;;;;;7.85;1.20;;;-1.40;99.90;;;;;;4981727;28;20380;-65
2022/01/20 09:51:26;;;;;;;5.20;1.40;;;-1.50;99.90;;;;;;4980553;28;20046;-64
2022/01/20 09:54:01;;;;;;;11.57;2.22;;;-1.50;99.90;;;;;;4956962;28;20062;-62
2022/01/20 09:56:34;;;;;;;5.13;2.15;;;-1.40;99.90;;;;;;4919355;28;20050;-69
2022/01/20 09:59:03;;;;;;;8.57;2.55;;;-1.40;99.90;;;;;;4916451;28;20213;-70
2022/01/20 10:01:44;;;;;;;9.55;2.67;;;-1.40;99.90;;;;;;4934366;28;20063;-66
2022/01/20 10:04:26;;;;;;;7.32;1.30;;;-1.50;99.90;;;;;;4915282;28;20054;-71
2022/01/20 10:06:59;;;;;;;5.45;2.15;;;-1.40;99.90;;;;;;4923616;28;20521;-65
2022/01/20 10:09:34;;;;;;;8.27;1.73;;;-1.30;99.90;;;;;;4918360;28;20054;-72
2022/01/20 10:12:15;;;;;;;10.75;3.35;;;-1.30;99.90;;;;;;4906103;28;21487;-68
2022/01/20 10:14:59;;;;;;;14.15;2.05;;;-1.30;99.90;;;;;;4911424;28;20055;-69
2022/01/20 10:17:46;;;;;;;7.45;2.45;;;-1.20;99.90;;;;;;4907037;28;20225;-70
2022/01/20 10:20:19;;;;;;;14.80;2.88;;;-1.20;99.90;;;;;;4933325;28;20110;-61
2022/01/20 10:22:58;;;;;;;6.38;2.13;;;-1.20;99.90;;;;;;4921692;28;20066;-64
2022/01/20 10:25:44;;;;;;;15.93;3.88;;;-1.10;99.90;;;;;;4927836;28;20130;-66
2022/01/20 10:28:19;;;;;;;17.27;1.88;;;-1.00;99.90;;;;;;4925909;28;20048;-68
2022/01/20 10:30:49;;;;;;;9.00;2.30;;;-0.90;99.90;;;;;;4920848;28;20440;-64
2022/01/20 10:33:16;;;;;;;8.15;1.75;;;-0.90;99.90;;;;;;4899702;28;20054;-70
2022/01/20 10:35:45;;;;;;;7.50;2.83;;;-0.90;99.90;;;;;;4915981;28;20074;-67
2022/01/20 10:38:29;;;;;;;2.05;0.88;;;-0.80;99.90;;;;;;4933820;28;20062;-71
2022/01/20 10:41:00;;;;;;;8.23;2.03;;;-0.80;99.90;;;;;;4917282;28;20209;-67
2022/01/20 10:43:40;;;;;;;4.70;2.00;;;-0.80;99.90;;;;;;3521616;28;10021297;-64
2022/01/20 10:46:49;;;;;;;12.10;2.60;;;-0.90;99.90;;;;;;3412391;28;10001981;-64
2022/01/20 10:49:30;;;;;;;9.25;1.77;;;-0.80;99.90;;;;;;4996121;28;20053;-65
2022/01/20 10:52:04;;;;;;;9.57;1.73;;;-0.60;99.90;;;;;;4967787;28;20211;-67
2022/01/20 10:54:43;;;;;;;6.78;1.77;;;-0.60;99.90;;;;;;4959849;28;20908;-63
2022/01/20 10:57:16;;;;;;;9.57;1.88;;;-0.60;99.90;;;;;;4959012;28;20051;-69
2022/01/20 10:59:55;;;;;;;11.63;2.60;;;-0.60;99.90;;;;;;4957781;28;20090;-67
2022/01/20 11:02:35;;;;;;;10.35;1.63;;;-0.50;99.90;;;;;;4955533;28;20130;-67
2022/01/20 11:05:03;;;;;;;8.05;2.22;;;-0.50;99.90;;;;;;4948235;28;20047;-65
2022/01/20 11:07:30;;;;;;;12.57;3.05;;;-0.50;99.90;;;;;;4935486;28;20047;-69
2022/01/20 11:10:04;;;;;;;4.28;1.98;;;-0.50;99.90;;;;;;4931424;28;20042;-66
2022/01/20 11:12:36;;;;;;;5.47;2.10;;;-0.50;99.90;;;;;;4953654;28;20077;-67
2022/01/20 11:15:31;;;;;;;9.50;1.85;;;-0.50;99.90;;;;;;4957795;28;20173;-66
2022/01/20 11:18:00;;;;;;;4.32;1.45;;;-0.50;99.90;;;;;;4959794;28;20393;-69
2022/01/20 11:20:38;;;;;;;;;;;-0.60;99.90;;;;;;4959593;28;20516;-65
2022/01/20 11:23:09;;;;;;;9.13;1.52;;;-0.60;99.90;;;;;;4973547;28;20392;-71
2022/01/20 11:26:04;;;;;;;11.50;2.20;;;-0.60;99.90;;;;;;4928543;28;20162;-66
2022/01/20 11:28:59;;;;;;;11.38;2.20;;;-0.60;99.90;;;;;;4942544;28;20062;-66
2022/01/20 11:31:38;;;;;;;15.10;1.60;;;-0.60;99.90;;;;;;4941472;28;20058;-63
2022/01/20 11:34:35;;;;;;;8.73;2.38;;;-0.60;99.90;;;;;;4937410;28;20812;-66
2022/01/20 11:37:07;;;;;;;12.48;2.30;;;-0.60;99.90;;;;;;4937625;28;20387;-63
2022/01/20 11:39:47;;;;;;;7.90;2.03;;;-0.60;99.90;;;;;;4940068;28;20065;-64
2022/01/20 11:42:25;;;;;;;9.70;2.53;;;-0.60;99.90;;;;;;4934673;28;20079;-66
2022/01/20 11:44:53;;;;;;;9.15;2.75;;;-0.60;99.90;;;;;;4943058;28;20067;-64
2022/01/20 11:47:31;;;;;;;11.27;2.60;;;-0.60;99.90;;;;;;4955433;28;20058;-65
2022/01/20 11:49:59;;;;;;;19.00;2.17;;;-0.60;99.90;;;;;;4951227;28;20150;-63
2022/01/20 11:52:27;;;;;;;9.75;2.72;;;-0.70;99.90;;;;;;4958642;28;20054;-68
2022/01/20 11:55:15;;;;;;;5.85;2.53;;;-0.60;99.90;;;;;;4955534;28;20047;-69
2022/01/20 11:57:42;;;;;;;4.68;1.98;;;-0.60;99.90;;;;;;4959639;28;20085;-63
2022/01/20 12:00:24;;;;;;;5.40;1.55;;;-0.60;99.90;;;;;;4952538;28;20109;-66
2022/01/20 12:02:51;;;;;;;11.77;2.92;;;-0.60;99.90;;;;;;4946540;28;20070;-61
2022/01/20 12:05:32;;;;;;;7.38;1.52;;;-0.60;99.90;;;;;;4979681;28;20105;-65
2022/01/20 12:08:31;;;;;;;3.28;1.00;;;-0.50;99.90;;;;;;4970465;28;20050;-64
2022/01/20 12:11:07;;;;;;;7.03;1.60;;;-0.40;99.90;;;;;;4926817;28;21050;-66
2022/01/20 12:13:49;;;;;;;11.52;3.47;;;-0.40;99.90;;;;;;4917030;28;21456;-66
2022/01/20 12:16:21;;;;;;;15.68;2.08;;;-0.30;99.90;;;;;;4911761;28;20051;-68
2022/01/20 12:18:53;;;;;;;9.88;1.70;;;-0.30;99.90;;;;;;4916133;28;20050;-69
2022/01/20 12:21:21;;;;;;;8.73;1.98;;;-0.30;99.90;;;;;;4907854;28;20057;-62
2022/01/20 12:23:48;;;;;;;12.75;1.77;;;-0.40;99.90;;;;;;4914443;28;21605;-73
2022/01/20 12:26:15;;;;;;;4.25;1.52;;;-0.40;99.90;;;;;;4913632;28;20713;-72
2022/01/20 12:28:42;;;;;;;7.28;2.17;;;-0.30;99.90;;;;;;4912375;28;21396;-72
2022/01/20 12:31:11;;;;;;;14.70;2.17;;;-0.40;99.90;;;;;;4915287;28;20060;-68
2022/01/20 12:33:44;;;;;;;7.37;1.83;;;-0.30;99.90;;;;;;4921382;28;20050;-68
2022/01/20 12:36:16;;;;;;;5.70;1.48;;;-0.30;99.90;;;;;;4918972;28;20303;-68
2022/01/20 12:38:48;;;;;;;6.30;1.33;;;-0.30;99.90;;;;;;4919239;28;20054;-65
2022/01/20 12:41:17;;;;;;;7.28;1.45;;;-0.20;99.90;;;;;;4946395;28;20054;-64
2022/01/20 12:43:50;;;;;;;4.80;1.40;;;-0.20;99.90;;;;;;3478137;28;10020728;-66
2022/01/20 12:46:20;;;;;;;6.05;2.17;;;-0.30;99.90;;;;;;2056003;28;10002033;-66
2022/01/20 12:48:58;;;;;;;14.70;1.85;;;-0.20;99.90;;;;;;4971826;28;20051;-66
2022/01/20 12:51:34;;;;;;;2.55;1.30;;;-0.20;99.90;;;;;;4969218;28;20149;-69
2022/01/20 12:54:07;;;;;;;6.78;2.42;;;-0.10;99.90;;;;;;4973511;28;20061;-70
2022/01/20 12:56:36;;;;;;;4.53;1.90;;;-0.10;99.90;;;;;;4971889;28;20066;-64
2022/01/20 12:59:05;;;;;;;4.73;1.30;;;-0.10;99.90;;;;;;4973800;28;20057;-65
2022/01/20 13:01:55;;;;;;;3.95;1.38;;;-0.10;99.90;;;;;;4974034;28;20480;-63
2022/01/20 13:04:24;;;;;;;;;;;-0.20;99.90;;;;;;4973354;28;20051;-65
2022/01/20 13:06:58;;;;;;;4.13;1.35;;;-0.10;99.90;;;;;;4971417;28;19994;-64
2022/01/20 13:09:37;;;;;;;6.40;1.00;;;-0.10;99.90;;;;;;4972816;28;20107;-67
2022/01/20 13:12:06;;;;;;;8.55;1.45;;;-0.20;99.90;;;;;;4973197;28;20046;-64
2022/01/20 13:14:47;;;;;;;9.55;2.08;;;-0.10;99.90;;;;;;4969880;28;20058;-62
2022/01/20 13:17:26;;;;;;;3.17;1.15;;;-0.10;99.90;;;;;;4946227;28;20141;-66
2022/01/20 13:19:56;;;;;;;5.38;1.95;;;-0.10;99.90;;;;;;4913532;28;20065;-64
2022/01/20 13:22:54;;;;;;;7.30;1.65;;;-0.10;99.90;;;;;;4914194;28;20061;-69
2022/01/20 13:25:27;;;;;;;3.67;1.15;;;-0.10;99.90;;;;;;4909557;28;20093;-67
2022/01/20 13:28:00;;;;;;;7.57;1.38;;;0.00;99.90;;;;;;4915410;28;20150;-68
2022/01/20 13:30:40;;;;;;;10.90;1.65;;;0.00;99.90;;;;;;4919658;28;20060;-66
2022/01/20 13:33:24;;;;;;;16.65;2.92;;;0.00;99.90;;;;;;4912015;28;20109;-74
2022/01/20 13:35:58;;;;;;;6.03;1.45;;;0.00;99.90;;;;;;4915765;28;20149;-64
2022/01/20 13:38:38;;;;;;;3.88;1.05;;;0.00;99.90;;;;;;4920152;28;20501;-71
2022/01/20 13:41:13;;;;;;;4.15;1.40;;;0.00;99.90;;;;;;4923916;28;20227;-68
2022/01/20 13:46:39;;;;;;;10.20;2.05;;;0.00;99.90;;;;;;4921366;28;20064;-66
2022/01/20 13:49:14;;;;;;;3.58;1.05;;;-0.10;99.90;;;;;;4975736;28;20140;-67
2022/01/20 13:51:42;;;;;;;11.32;1.98;;;-0.10;99.90;;;;;;4980323;28;20138;-66
2022/01/20 13:54:09;;;;;;;3.83;1.73;;;-0.10;99.90;;;;;;4939750;28;20158;-66
2022/01/20 13:56:36;;;;;;;12.20;1.45;;;-0.10;99.90;;;;;;4912553;28;21681;-66
2022/01/20 13:59:09;;;;;;;7.75;1.65;;;-0.10;99.90;;;;;;4911229;28;22172;-67
2022/01/20 14:01:54;;;;;;;5.15;1.52;;;-0.10;99.90;;;;;;4908996;28;20054;-66
2022/01/20 14:04:22;;;;;;;7.30;1.95;;;0.00;99.90;;;;;;4909536;28;21710;-70
2022/01/20 14:06:49;;;;;;;7.28;1.77;;;0.00;99.90;;;;;;4906855;28;20051;-66
2022/01/20 14:09:15;;;;;;;11.25;4.00;;;0.00;99.90;;;;;;4906790;28;20181;-66
2022/01/20 14:11:43;;;;;;;8.10;1.55;;;-0.10;99.90;;;;;;4909867;28;20157;-65
2022/01/20 14:14:11;;;;;;;9.80;1.35;;;0.00;99.90;;;;;;4909123;28;20086;-68